Indian Mountain Lrrs Airport
PAIM : rendu visible

Aérodrome :











RETROUVEZ-NOUS SUR...

 
LOGIN :

S'inscrire | Disclaimer

   EN    FR    IT 

 









Légende :    VFR   VFR Marginal   IFR   IFR Intensif   IFR Très Intensif
Visi : 
Plafond : 
>= 8 km
>= 3000ft
5 à 8 km
1000 à 3000 ft
1500m à 5 km
500 à 1000 ft
800 à 1500m
200 à 500 ft
< 800m
< 200 ft
Symboles :   Orages  Brouillard  Fortes neiges  Fortes précipitations  Vent > 20 kt






- Altitude de l'aérodrome : 1273 ft
- Code IATA : UTO


PAIM - Indian Mountain Lrrs

DERNIER METAR :
  • 300655Z AUTO 11008KT 10SM CLR M14/M26 A3032 RMK AO2 SLP313 T11361256

METARs EXPIRÉS :
  • 300555Z AUTO VRB06KT 10SM CLR M13/M24 A3032 RMK AO2 SLP314 T11311243 11104 21136 53004
  • 300455Z AUTO 13010KT 10SM CLR M13/M23 A3032 RMK AO2 SLP313 T11301231

Prévision TAF périmée.



MET'MAP, la Météo Aéronautique d'un coup d'oeil ! - Copyright ORBIFLY Décembre 2007 - Disclaimer

ORBIFLY MET'MAP TEAM :

Programmation & Développement : Alexandra Zaïnal
Sur une idée originale de : Baudouin d'Aumeries
Assistance à la programmation : Marc-Olivier Méhu
Soutien technique & logistique : Manuel Goepfert

Contact : metmap@orbifly.com




SOURCES & CREDITS :

   NOAA       Earth
Advisory